Marianne Danica — OWWO2 — position and weather

sailwx.info

Track history (hours):
 
Tides and Currents Weather Stations Pressure Air Temp Water Temp Dewpoint Dewpoint Depression Visibility Wind Speed Wind Dir Waves Ship Positions

Marianne Danica

Last reported at 2016-Aug-25 23:33 UTC. Time now 2016-Aug-26 10:13 UTC.
Position N 36°59' E 002°19'.

Length 71 m; draft 3 m.

Type: Ship (hazmat cat A). MMSI: 219544000.

Date/timePositionNaut miles runAvg speedWind from/ knotsBaromVisibWave heightAir tempDewpointWater temp
2016-Aug-25 23:33N 36°59' E 002°19'  
2016-Aug-20 22:33N 34°17' E 029°31'3610.8
2016-Aug-20 19:13N 34°15' E 030°14'710.4
2016-Aug-20 18:31N 34°14' E 030°23'1010.6
2016-Aug-20 17:33N 34°13' E 030°35'1110.6
2016-Aug-20 16:34N 34°12' E 030°48'1210.7
2016-Aug-20 15:29N 34°11' E 031°02'1110.8
2016-Aug-20 14:30N 34°11' E 031°15'1210.3
2016-Aug-20 13:23N 34°10' E 031°29'1010.4
2016-Aug-20 12:27N 34°09' E 031°40'1010.4
2016-Aug-20 11:28N 34°08' E 031°53'1110.3
2016-Aug-20 10:24N 34°07' E 032°06'910.2
2016-Aug-20 09:34N 34°07' E 032°16'1110.5
2016-Aug-20 08:34N 34°06' E 032°29'1110.6
2016-Aug-20 07:33N 34°05' E 032°42'1210.7
2016-Aug-20 06:26N 34°04' E 032°56'1010.7
2016-Aug-20 05:33N 34°03' E 033°08'1110.8
2016-Aug-20 04:34N 34°02' E 033°20'1110.9
2016-Aug-20 03:31N 34°02' E 033°34'1111.0
2016-Aug-20 02:33N 34°01' E 033°47'1111.1
2016-Aug-20 01:31N 33°60' E 034°01'1110.9
2016-Aug-20 00:31N 33°59' E 034°14'1111.1
2016-Aug-19 23:33N 33°58' E 034°27'1111.4
2016-Aug-19 22:34N 33°58' E 034°40'1211.6
2016-Aug-19 21:33N 33°56' E 034°54'1211.6
2016-Aug-19 20:33N 33°55' E 035°08'1211.4
2016-Aug-19 19:32N 33°56' E 035°22'4 1.0
2016-Aug-19 15:33N 33°55' E 035°17'10 9.5
2016-Aug-19 14:33N 33°51' E 035°07'2110.0
2016-Aug-19 12:27N 33°35' E 034°50'1110.0
2016-Aug-19 11:20N 33°27' E 034°41'810.2
2016-Aug-19 10:33N 33°21' E 034°34'8 7.6
2016-Aug-19 09:29N 33°15' E 034°28'1011.0
2016-Aug-19 08:33N 33°07' E 034°19'3611.5
2016-Aug-19 05:26N 32°41' E 033°50'1311.2
2016-Aug-19 04:14N 32°31' E 033°39'710.9
2016-Aug-19 03:34N 32°26' E 033°34'1311.0
2016-Aug-19 02:24N 32°16' E 033°24'910.9
2016-Aug-19 01:33N 32°10' E 033°16'2611.1
2016-Aug-18 23:12N 31°51' E 032°54'1911.4
2016-Aug-18 21:32N 31°41' E 032°35'38 9.2
2016-Aug-18 17:24N 31°06' E 032°19'  
Track history (hours):
 
Tides and Currents Weather Stations Pressure Air Temp Water Temp Dewpoint Dewpoint Depression Visibility Wind Speed Wind Dir Waves Ship Positions

Marianne Danica

Last reported at 2016-Aug-25 23:33 UTC. Time now 2016-Aug-26 10:13 UTC.
Position N 36°59' E 002°19'.

Length 71 m; draft 3 m.

Type: Ship (hazmat cat A). MMSI: 219544000.

Date/timePositionNaut miles runAvg speedWind from/ knotsBaromVisibWave heightAir tempDewpointWater temp
2016-Aug-25 23:33N 36°59' E 002°19'  
2016-Aug-20 22:33N 34°17' E 029°31'3610.8
2016-Aug-20 19:13N 34°15' E 030°14'710.4
2016-Aug-20 18:31N 34°14' E 030°23'1010.6
2016-Aug-20 17:33N 34°13' E 030°35'1110.6
2016-Aug-20 16:34N 34°12' E 030°48'1210.7
2016-Aug-20 15:29N 34°11' E 031°02'1110.8
2016-Aug-20 14:30N 34°11' E 031°15'1210.3
2016-Aug-20 13:23N 34°10' E 031°29'1010.4
2016-Aug-20 12:27N 34°09' E 031°40'1010.4
2016-Aug-20 11:28N 34°08' E 031°53'1110.3
2016-Aug-20 10:24N 34°07' E 032°06'910.2
2016-Aug-20 09:34N 34°07' E 032°16'1110.5
2016-Aug-20 08:34N 34°06' E 032°29'1110.6
2016-Aug-20 07:33N 34°05' E 032°42'1210.7
2016-Aug-20 06:26N 34°04' E 032°56'1010.7
2016-Aug-20 05:33N 34°03' E 033°08'1110.8
2016-Aug-20 04:34N 34°02' E 033°20'1110.9
2016-Aug-20 03:31N 34°02' E 033°34'1111.0
2016-Aug-20 02:33N 34°01' E 033°47'1111.1
2016-Aug-20 01:31N 33°60' E 034°01'1110.9
2016-Aug-20 00:31N 33°59' E 034°14'1111.1
2016-Aug-19 23:33N 33°58' E 034°27'1111.4
2016-Aug-19 22:34N 33°58' E 034°40'1211.6
2016-Aug-19 21:33N 33°56' E 034°54'1211.6
2016-Aug-19 20:33N 33°55' E 035°08'1211.4
2016-Aug-19 19:32N 33°56' E 035°22'4 1.0
2016-Aug-19 15:33N 33°55' E 035°17'10 9.5
2016-Aug-19 14:33N 33°51' E 035°07'2110.0
2016-Aug-19 12:27N 33°35' E 034°50'1110.0
2016-Aug-19 11:20N 33°27' E 034°41'810.2
2016-Aug-19 10:33N 33°21' E 034°34'8 7.6
2016-Aug-19 09:29N 33°15' E 034°28'1011.0
2016-Aug-19 08:33N 33°07' E 034°19'3611.5
2016-Aug-19 05:26N 32°41' E 033°50'1311.2
2016-Aug-19 04:14N 32°31' E 033°39'710.9
2016-Aug-19 03:34N 32°26' E 033°34'1311.0
2016-Aug-19 02:24N 32°16' E 033°24'910.9
2016-Aug-19 01:33N 32°10' E 033°16'2611.1
2016-Aug-18 23:12N 31°51' E 032°54'1911.4
2016-Aug-18 21:32N 31°41' E 032°35'38 9.2
2016-Aug-18 17:24N 31°06' E 032°19'  

Dump ship's entire track history